Time;durP1;ratioP1;P1;durP2;ratioP2;P2;SDS_P1;SDS_P2;PMS_P1;PMS_P2;Temp;Humidity;BMP_temperature;BMP_pressure;BME280_temperature;BME280_humidity;BME280_pressure;Samples;Min_cycle;Max_cycle;Signal;HPM_P1;HPM_P2
2022/07/26 00:01:27;;;;;;;1.93;0.63;;;22.80;68.60;;;;;;5053683;28;20621;-73
2022/07/26 00:03:53;;;;;;;3.73;0.50;;;22.80;68.70;;;;;;5054972;28;20575;-74
2022/07/26 00:06:19;;;;;;;1.40;0.60;;;22.80;69.10;;;;;;5054381;28;20623;-74
2022/07/26 00:08:46;;;;;;;2.87;0.43;;;22.80;69.30;;;;;;5054915;28;20671;-74
2022/07/26 00:11:12;;;;;;;2.03;0.57;;;22.80;69.50;;;;;;5054551;28;21030;-74
2022/07/26 00:13:38;;;;;;;1.73;0.60;;;22.80;70.50;;;;;;5054839;28;20599;-75
2022/07/26 00:16:04;;;;;;;1.30;0.50;;;22.80;69.80;;;;;;5054487;28;20572;-74
2022/07/26 00:18:30;;;;;;;3.50;0.90;;;22.70;70.00;;;;;;5054499;28;20591;-73
2022/07/26 00:20:56;;;;;;;2.00;0.60;;;22.70;70.30;;;;;;5054528;28;20623;-73
2022/07/26 00:23:22;;;;;;;1.50;0.60;;;22.70;70.60;;;;;;5053649;28;20263;-74
2022/07/26 00:25:47;;;;;;;1.30;0.50;;;22.70;71.10;;;;;;5053953;28;20666;-74
2022/07/26 00:28:13;;;;;;;1.57;0.70;;;22.60;71.10;;;;;;5054315;28;20220;-74
2022/07/26 00:30:39;;;;;;;1.73;0.60;;;22.60;71.50;;;;;;5053012;28;20530;-75
2022/07/26 00:33:08;;;;;;;2.03;0.50;;;22.60;71.70;;;;;;5053967;28;20169;-74
2022/07/26 00:35:33;;;;;;;3.10;0.50;;;22.60;72.00;;;;;;5053999;28;20211;-74
2022/07/26 00:37:59;;;;;;;2.07;0.57;;;22.50;71.90;;;;;;5054179;28;20684;-74
2022/07/26 00:40:25;;;;;;;2.30;0.80;;;22.50;72.10;;;;;;5053924;28;20259;-74
2022/07/26 00:42:51;;;;;;;1.77;0.50;;;22.40;72.30;;;;;;5054295;28;20179;-74
2022/07/26 00:45:17;;;;;;;1.50;0.60;;;22.40;72.50;;;;;;5053850;28;20268;-74
2022/07/26 00:47:43;;;;;;;3.20;0.70;;;22.30;72.90;;;;;;5053989;28;20196;-74
2022/07/26 00:50:15;;;;;;;1.63;0.60;;;22.30;73.20;;;;;;5054013;28;20575;-75
2022/07/26 00:52:42;;;;;;;1.40;0.70;;;22.20;73.90;;;;;;5053911;28;20567;-75
2022/07/26 00:55:08;;;;;;;1.63;0.60;;;22.10;74.00;;;;;;5053657;28;20571;-75
2022/07/26 00:57:35;;;;;;;3.40;0.80;;;22.10;74.40;;;;;;5053759;28;21170;-74
2022/07/26 01:00:10;;;;;;;1.60;0.50;;;22.10;74.90;;;;;;5053767;28;20564;-74
2022/07/26 01:02:36;;;;;;;1.80;0.60;;;22.00;75.70;;;;;;5053761;28;20570;-75
2022/07/26 01:05:02;;;;;;;2.33;0.50;;;21.90;75.60;;;;;;5053424;28;20564;-75
2022/07/26 01:07:28;;;;;;;1.80;0.60;;;21.90;76.10;;;;;;5052532;28;20591;-74
2022/07/26 01:09:54;;;;;;;2.47;0.60;;;21.80;76.40;;;;;;5053138;28;20563;-74
2022/07/26 01:12:20;;;;;;;1.73;0.60;;;21.80;77.00;;;;;;5052374;28;20610;-74
2022/07/26 01:14:46;;;;;;;3.77;0.70;;;21.70;77.70;;;;;;5053234;28;20646;-74
2022/07/26 01:17:13;;;;;;;3.30;0.80;;;21.70;78.10;;;;;;5052223;28;20609;-74
2022/07/26 01:19:39;;;;;;;3.03;0.80;;;21.70;79.00;;;;;;5053300;28;20180;-74
2022/07/26 01:22:05;;;;;;;4.30;0.63;;;21.60;79.50;;;;;;5053395;28;20567;-74
2022/07/26 01:24:31;;;;;;;5.40;1.07;;;21.60;80.10;;;;;;5053138;28;20564;-73
2022/07/26 01:26:57;;;;;;;2.30;0.60;;;21.60;80.80;;;;;;5052996;28;21046;-74
2022/07/26 01:29:23;;;;;;;1.80;0.70;;;21.50;81.20;;;;;;5053285;28;20688;-74
2022/07/26 01:31:49;;;;;;;2.83;0.90;;;21.50;81.80;;;;;;5051907;28;20559;-74
2022/07/26 01:34:16;;;;;;;2.70;0.63;;;21.40;82.30;;;;;;5052993;28;20591;-75
2022/07/26 01:36:41;;;;;;;2.70;0.60;;;21.40;83.10;;;;;;5044604;28;21271;-75
2022/07/26 01:39:07;;;;;;;7.73;1.13;;;21.40;83.40;;;;;;5044638;28;20706;-76
2022/07/26 01:41:34;;;;;;;2.23;0.60;;;21.40;84.10;;;;;;5053079;28;20959;-75
2022/07/26 01:44:00;;;;;;;2.20;0.70;;;21.30;84.90;;;;;;5052537;28;20637;-75
2022/07/26 01:46:25;;;;;;;7.17;1.17;;;21.30;85.20;;;;;;5052970;28;20883;-75
2022/07/26 01:48:51;;;;;;;5.73;0.70;;;21.20;85.70;;;;;;5052910;28;20579;-75
2022/07/26 01:51:17;;;;;;;2.00;0.63;;;21.20;86.50;;;;;;5052955;28;20231;-75
2022/07/26 01:53:44;;;;;;;1.70;0.70;;;21.20;87.70;;;;;;5052824;28;20675;-75
2022/07/26 01:56:13;;;;;;;3.67;0.90;;;21.10;87.50;;;;;;5050616;28;20615;-75
2022/07/26 01:58:40;;;;;;;2.63;0.80;;;21.10;88.20;;;;;;5052724;28;20601;-75
2022/07/26 02:01:07;;;;;;;1.73;0.53;;;21.00;88.70;;;;;;5052379;28;20556;-75
2022/07/26 02:03:33;;;;;;;4.23;1.10;;;21.10;89.30;;;;;;5052898;28;20590;-75
2022/07/26 02:05:58;;;;;;;2.03;0.70;;;21.00;89.50;;;;;;5052374;28;20576;-75
2022/07/26 02:08:24;;;;;;;4.13;1.00;;;21.00;90.00;;;;;;5052581;28;20603;-75
2022/07/26 02:10:59;;;;;;;2.17;0.60;;;21.00;90.10;;;;;;5052248;28;20168;-75
2022/07/26 02:13:30;;;;;;;4.03;0.83;;;21.00;90.40;;;;;;5052643;28;20212;-75
2022/07/26 02:15:59;;;;;;;4.40;1.00;;;21.00;90.60;;;;;;5050751;28;20651;-75
2022/07/26 02:18:26;;;;;;;2.37;0.80;;;21.00;90.90;;;;;;5052370;28;20669;-75
2022/07/26 02:20:53;;;;;;;3.93;0.80;;;21.00;91.30;;;;;;5051558;28;20687;-75
2022/07/26 02:23:19;;;;;;;4.70;0.80;;;21.00;91.20;;;;;;5052625;28;20682;-75
2022/07/26 02:25:45;;;;;;;2.53;0.70;;;21.10;91.50;;;;;;5051878;28;20564;-74
2022/07/26 02:28:10;;;;;;;2.60;0.70;;;21.10;91.60;;;;;;5051888;28;21031;-74
2022/07/26 02:30:37;;;;;;;6.53;0.80;;;21.20;91.70;;;;;;5050691;28;20534;-74
2022/07/26 02:33:02;;;;;;;2.50;0.80;;;21.20;91.80;;;;;;5052182;28;20177;-74
2022/07/26 02:35:30;;;;;;;6.93;1.00;;;21.20;91.90;;;;;;5051567;28;20642;-74
2022/07/26 02:38:04;;;;;;;3.37;0.80;;;21.30;92.10;;;;;;5052003;28;20537;-75
2022/07/26 02:40:31;;;;;;;3.67;0.90;;;21.30;92.40;;;;;;5051942;28;20603;-75
2022/07/26 02:42:57;;;;;;;3.80;0.90;;;21.30;92.40;;;;;;5050779;28;20567;-74
2022/07/26 02:45:23;;;;;;;3.80;1.13;;;21.30;92.50;;;;;;5033688;28;21151;-73
2022/07/26 02:47:51;;;;;;;3.30;0.80;;;21.30;92.60;;;;;;5051900;28;20693;-74
2022/07/26 02:50:19;;;;;;;2.20;0.60;;;21.40;92.70;;;;;;5051284;28;20613;-74
2022/07/26 02:52:48;;;;;;;5.67;1.10;;;21.40;92.90;;;;;;5051833;28;20593;-74
2022/07/26 02:55:15;;;;;;;2.90;1.73;;;21.40;92.90;;;;;;5050921;28;20970;-74
2022/07/26 02:57:41;;;;;;;2.80;0.90;;;21.40;93.30;;;;;;5051655;28;20612;-74
2022/07/26 03:00:09;;;;;;;2.57;0.70;;;21.40;93.00;;;;;;5051447;28;20575;-74
2022/07/26 03:02:35;;;;;;;2.63;0.80;;;21.40;93.20;;;;;;5051703;28;20591;-74
2022/07/26 03:05:01;;;;;;;3.70;0.73;;;21.40;93.30;;;;;;5051262;28;20583;-75
2022/07/26 03:07:27;;;;;;;5.13;1.10;;;21.40;93.40;;;;;;5051426;28;20603;-73
2022/07/26 03:09:53;;;;;;;3.20;0.90;;;21.40;93.50;;;;;;5051426;28;20572;-74
2022/07/26 03:12:19;;;;;;;5.33;0.93;;;21.40;93.60;;;;;;5051588;28;20575;-74
2022/07/26 03:14:45;;;;;;;1.70;0.70;;;21.40;93.60;;;;;;5051170;28;20504;-75
2022/07/26 03:17:10;;;;;;;3.13;0.80;;;21.40;93.80;;;;;;5051245;28;20631;-74
2022/07/26 03:19:36;;;;;;;2.43;0.90;;;21.40;93.90;;;;;;5051380;28;20200;-74
2022/07/26 03:22:02;;;;;;;7.43;1.00;;;21.40;94.00;;;;;;5050902;28;20645;-73
2022/07/26 03:24:28;;;;;;;4.60;1.10;;;21.40;94.20;;;;;;5050365;28;20164;-74
2022/07/26 03:26:53;;;;;;;6.23;1.13;;;21.40;94.20;;;;;;5051058;28;20624;-75
2022/07/26 03:29:19;;;;;;;4.57;1.20;;;21.40;94.30;;;;;;5051048;28;20201;-75
2022/07/26 03:31:45;;;;;;;3.47;0.97;;;21.40;94.40;;;;;;5051375;28;20247;-74
2022/07/26 03:34:11;;;;;;;3.93;1.10;;;21.40;94.60;;;;;;5053608;28;20180;-75
2022/07/26 03:36:36;;;;;;;2.53;0.80;;;21.40;94.80;;;;;;5054076;28;20204;-75
2022/07/26 03:39:02;;;;;;;2.27;0.80;;;21.40;94.90;;;;;;5055361;28;20184;-75
2022/07/26 03:41:30;;;;;;;3.80;0.97;;;21.30;95.00;;;;;;5055224;28;20499;-75
2022/07/26 03:43:56;;;;;;;3.23;1.07;;;21.40;95.20;;;;;;5055084;28;20662;-75
2022/07/26 03:46:22;;;;;;;2.40;1.00;;;21.40;95.40;;;;;;5054969;28;20694;-75
2022/07/26 03:48:48;;;;;;;3.77;1.30;;;21.40;95.50;;;;;;5054763;28;20710;-75
2022/07/26 03:51:13;;;;;;;5.10;1.80;;;21.40;95.70;;;;;;5054997;28;20560;-75
2022/07/26 03:53:39;;;;;;;3.17;0.87;;;21.40;95.80;;;;;;5055295;28;20178;-75
2022/07/26 03:58:50;;;;;;;2.30;0.90;;;21.40;96.00;;;;;;5053797;28;20889;-74
2022/07/26 04:01:16;;;;;;;5.53;1.53;;;21.50;96.10;;;;;;5053728;28;20556;-74
2022/07/26 04:03:41;;;;;;;5.60;1.50;;;21.50;96.20;;;;;;5053896;28;20567;-74
2022/07/26 04:06:09;;;;;;;5.03;1.40;;;21.50;96.30;;;;;;5053248;28;20563;-75
2022/07/26 04:08:35;;;;;;;6.60;1.30;;;21.50;96.40;;;;;;5053546;28;20673;-74
2022/07/26 04:11:01;;;;;;;3.30;1.00;;;21.50;96.50;;;;;;5053266;28;20997;-74
2022/07/26 04:13:27;;;;;;;3.63;1.20;;;21.60;96.60;;;;;;5054743;28;20583;-75
2022/07/26 04:15:53;;;;;;;4.20;1.00;;;21.60;96.70;;;;;;5054147;28;20654;-74
2022/07/26 04:18:19;;;;;;;4.47;1.17;;;21.60;96.70;;;;;;5054559;28;20204;-74
2022/07/26 04:20:45;;;;;;;2.83;1.20;;;21.60;96.80;;;;;;5054582;28;20567;-74
2022/07/26 04:23:11;;;;;;;3.20;1.00;;;21.60;96.80;;;;;;5054522;28;20559;-74
2022/07/26 04:25:37;;;;;;;2.67;1.00;;;21.70;96.90;;;;;;5054108;28;20173;-74
2022/07/26 04:28:03;;;;;;;2.70;0.90;;;21.60;96.90;;;;;;5054397;28;20614;-74
2022/07/26 04:30:29;;;;;;;2.37;0.90;;;21.70;97.00;;;;;;5054243;28;20230;-74
2022/07/26 04:32:54;;;;;;;3.83;0.80;;;21.70;97.20;;;;;;5054361;28;20662;-75
2022/07/26 04:35:20;;;;;;;3.07;1.07;;;21.70;97.20;;;;;;5053867;28;20563;-73
2022/07/26 04:37:46;;;;;;;3.13;1.03;;;21.70;97.20;;;;;;5054484;28;20224;-74
2022/07/26 04:40:18;;;;;;;2.83;1.00;;;21.70;97.30;;;;;;5054047;28;20210;-74
2022/07/26 04:42:44;;;;;;;3.40;0.90;;;21.70;97.40;;;;;;5054083;28;20551;-74
2022/07/26 04:45:11;;;;;;;5.97;1.70;;;21.70;97.40;;;;;;5052971;28;21164;-74
2022/07/26 04:47:40;;;;;;;2.60;1.10;;;21.70;97.50;;;;;;5054183;28;20626;-74
2022/07/26 04:50:06;;;;;;;4.30;0.80;;;21.70;97.60;;;;;;5052557;28;20566;-73
2022/07/26 04:52:32;;;;;;;3.80;1.60;;;21.70;97.60;;;;;;5053997;28;20563;-73
2022/07/26 04:54:58;;;;;;;3.50;1.10;;;21.70;97.70;;;;;;5053513;28;20567;-74
2022/07/26 04:57:24;;;;;;;4.50;1.27;;;21.70;97.80;;;;;;5053864;28;20209;-74
2022/07/26 04:59:49;;;;;;;5.93;1.20;;;21.80;97.90;;;;;;5053535;28;20161;-73
2022/07/26 05:02:17;;;;;;;4.67;1.40;;;21.80;98.00;;;;;;5053779;28;20562;-74
2022/07/26 05:04:43;;;;;;;2.93;1.30;;;21.80;98.10;;;;;;5053403;28;20191;-74
2022/07/26 05:07:09;;;;;;;5.43;1.47;;;21.80;98.20;;;;;;5053651;28;20645;-74
2022/07/26 05:09:35;;;;;;;5.10;1.60;;;21.80;98.20;;;;;;5053521;28;20679;-74
2022/07/26 05:12:01;;;;;;;6.37;2.53;;;21.80;98.30;;;;;;5052446;28;20641;-74
2022/07/26 05:14:26;;;;;;;2.97;1.03;;;21.80;98.40;;;;;;5053332;28;20568;-74
2022/07/26 05:16:52;;;;;;;4.03;1.30;;;21.90;98.80;;;;;;5053418;28;20636;-75
2022/07/26 05:19:18;;;;;;;5.00;1.33;;;21.90;98.60;;;;;;5053466;28;20249;-74
2022/07/26 05:21:44;;;;;;;3.67;1.30;;;21.90;98.70;;;;;;5053186;28;20161;-74
2022/07/26 05:24:09;;;;;;;5.00;1.30;;;22.00;98.70;;;;;;5053111;28;20248;-74
2022/07/26 05:26:35;;;;;;;5.63;1.20;;;22.00;98.80;;;;;;5053034;28;20181;-74
2022/07/26 05:29:01;;;;;;;4.20;1.70;;;22.00;98.90;;;;;;5052048;28;20177;-74
2022/07/26 05:31:27;;;;;;;4.10;1.40;;;22.00;98.90;;;;;;5053464;28;20257;-75
2022/07/26 05:33:54;;;;;;;6.23;1.57;;;22.10;99.10;;;;;;5052946;28;20653;-75
2022/07/26 05:36:20;;;;;;;2.87;1.13;;;22.10;99.20;;;;;;5053149;28;20229;-75
2022/07/26 05:38:46;;;;;;;2.90;1.37;;;22.20;99.30;;;;;;5053378;28;20957;-75
2022/07/26 05:41:12;;;;;;;6.57;1.90;;;22.20;99.30;;;;;;5051698;28;20579;-75
2022/07/26 05:43:38;;;;;;;3.40;1.50;;;22.20;99.40;;;;;;5052492;28;20169;-76
2022/07/26 05:46:03;;;;;;;5.13;1.77;;;22.20;99.40;;;;;;5053232;28;20580;-75
2022/07/26 05:48:29;;;;;;;7.97;1.70;;;22.30;99.50;;;;;;5053348;28;20193;-75
2022/07/26 05:50:55;;;;;;;5.67;1.50;;;22.30;99.60;;;;;;5053511;28;20181;-75
2022/07/26 05:53:21;;;;;;;6.67;2.10;;;22.30;99.60;;;;;;5053629;28;20491;-75
2022/07/26 05:55:47;;;;;;;4.80;1.53;;;22.40;99.70;;;;;;5051519;28;20228;-76
2022/07/26 05:58:13;;;;;;;7.03;1.83;;;22.40;99.80;;;;;;5053531;28;21035;-74
2022/07/26 06:00:38;;;;;;;8.53;1.60;;;22.40;99.80;;;;;;5036677;28;20256;-76
2022/07/26 06:03:22;;;;;;;4.80;1.53;;;22.40;99.80;;;;;;5052975;28;20181;-75
2022/07/26 06:05:49;;;;;;;3.70;1.20;;;22.40;99.90;;;;;;5026070;28;20236;-75
2022/07/26 06:08:15;;;;;;;4.20;1.60;;;22.40;99.90;;;;;;5032848;28;20624;-75
2022/07/26 06:10:40;;;;;;;9.20;1.40;;;22.40;99.90;;;;;;5034264;28;20748;-75
2022/07/26 06:13:06;;;;;;;8.83;2.37;;;22.40;99.90;;;;;;5031931;28;20583;-76
2022/07/26 06:15:32;;;;;;;6.73;1.97;;;22.40;99.90;;;;;;5032733;28;20566;-75
2022/07/26 06:17:58;;;;;;;5.90;1.90;;;22.40;99.90;;;;;;5029569;28;20194;-75
2022/07/26 06:20:23;;;;;;;7.03;2.63;;;22.30;99.90;;;;;;5026166;28;20197;-76
2022/07/26 06:22:50;;;;;;;4.63;1.83;;;22.40;99.90;;;;;;5034780;28;20180;-76
2022/07/26 06:25:16;;;;;;;4.70;2.43;;;22.30;99.90;;;;;;5033598;28;20248;-75
2022/07/26 06:27:42;;;;;;;8.90;4.07;;;22.30;99.90;;;;;;5033196;28;20626;-76
2022/07/26 06:30:09;;;;;;;7.43;2.37;;;22.30;99.90;;;;;;5033348;28;20647;-76
2022/07/26 06:32:34;;;;;;;8.30;2.23;;;22.30;99.90;;;;;;5038386;28;20173;-76
2022/07/26 06:35:00;;;;;;;5.00;1.90;;;22.30;99.90;;;;;;5037058;28;21119;-76
2022/07/26 06:37:27;;;;;;;6.87;2.30;;;22.30;99.90;;;;;;5038504;28;20269;-76
2022/07/26 06:39:53;;;;;;;7.57;2.43;;;22.30;99.90;;;;;;5037622;28;21159;-77
2022/07/26 06:42:18;;;;;;;5.90;1.90;;;22.40;99.90;;;;;;5036868;28;20560;-75
2022/07/26 06:44:44;;;;;;;8.67;3.33;;;22.40;99.90;;;;;;5030732;28;20696;-75
2022/07/26 06:47:10;;;;;;;4.87;2.20;;;22.40;99.90;;;;;;5032058;28;20604;-76
2022/07/26 06:49:36;;;;;;;4.43;2.10;;;22.40;99.90;;;;;;5032085;28;20241;-75
2022/07/26 06:52:02;;;;;;;4.50;1.70;;;22.40;99.90;;;;;;5031962;28;20178;-75
2022/07/26 06:54:28;;;;;;;5.37;1.67;;;22.50;99.90;;;;;;5031703;28;20607;-75
2022/07/26 06:56:57;;;;;;;7.17;2.50;;;22.50;99.90;;;;;;5031902;28;20646;-74
2022/07/26 06:59:22;;;;;;;3.23;1.50;;;22.50;99.90;;;;;;5032065;28;20170;-75
2022/07/26 07:01:48;;;;;;;4.97;1.60;;;22.50;99.90;;;;;;5031525;28;20652;-75
2022/07/26 07:04:14;;;;;;;7.17;2.27;;;22.60;99.90;;;;;;5030754;28;22267;-75
2022/07/26 07:06:40;;;;;;;7.50;2.00;;;22.60;99.90;;;;;;5028056;28;20590;-75
2022/07/26 07:09:05;;;;;;;4.57;1.83;;;22.70;99.90;;;;;;5035137;28;20220;-75
2022/07/26 07:11:31;;;;;;;8.10;2.13;;;22.70;99.90;;;;;;5032476;28;20232;-75
2022/07/26 07:13:57;;;;;;;6.37;1.90;;;22.80;99.90;;;;;;5026727;28;20643;-75
2022/07/26 07:16:23;;;;;;;9.23;3.33;;;22.80;99.90;;;;;;5029254;28;20236;-75
2022/07/26 07:18:50;;;;;;;6.30;2.03;;;22.90;99.90;;;;;;5036070;28;20174;-74
2022/07/26 07:21:16;;;;;;;6.77;2.63;;;22.90;99.90;;;;;;5051577;28;20174;-76
2022/07/26 07:23:41;;;;;;;6.90;2.83;;;22.90;99.90;;;;;;5051413;28;20572;-75
2022/07/26 07:26:07;;;;;;;8.53;2.70;;;23.00;99.90;;;;;;5053337;28;20576;-75
2022/07/26 07:28:37;;;;;;;8.57;3.47;;;23.00;99.90;;;;;;5052317;28;20224;-76
2022/07/26 07:31:04;;;;;;;6.73;2.70;;;23.10;99.90;;;;;;5051499;28;20174;-76
2022/07/26 07:33:30;;;;;;;6.63;3.20;;;23.10;99.90;;;;;;5032577;28;20580;-76
2022/07/26 07:35:56;;;;;;;7.90;3.70;;;23.20;99.90;;;;;;5032902;28;20998;-76
2022/07/26 07:38:22;;;;;;;8.50;3.30;;;23.20;99.90;;;;;;5046749;28;20615;-77
2022/07/26 07:40:47;;;;;;;8.20;4.17;;;23.30;99.90;;;;;;5052976;28;20183;-77
2022/07/26 07:43:13;;;;;;;6.00;3.43;;;23.40;99.90;;;;;;5035649;28;20181;-76
2022/07/26 07:45:39;;;;;;;9.10;3.67;;;23.60;99.90;;;;;;5056453;28;20543;-76
2022/07/26 07:48:05;;;;;;;10.43;4.33;;;23.70;99.90;;;;;;5057084;28;20200;-76
2022/07/26 07:50:32;;;;;;;6.67;4.57;;;23.80;99.90;;;;;;5058993;28;20924;-78
2022/07/26 07:52:59;;;;;;;7.67;4.47;;;23.90;99.90;;;;;;5038312;28;20666;-76
2022/07/26 07:55:25;;;;;;;9.20;4.40;;;24.00;99.90;;;;;;5034033;28;20577;-75
2022/07/26 07:57:51;;;;;;;5.40;2.90;;;24.00;99.90;;;;;;5033623;28;20189;-75
2022/07/26 08:00:18;;;;;;;7.33;4.07;;;24.10;99.90;;;;;;5030183;28;20608;-75
2022/07/26 08:02:45;;;;;;;12.93;5.50;;;24.20;99.90;;;;;;5031485;28;20166;-76
2022/07/26 08:05:11;;;;;;;7.47;5.30;;;24.20;99.90;;;;;;5030062;28;20998;-76
2022/07/26 08:07:37;;;;;;;8.13;5.57;;;24.30;99.90;;;;;;5031230;28;20606;-76
2022/07/26 08:10:04;;;;;;;7.07;5.47;;;24.30;99.90;;;;;;5030773;28;20604;-76
2022/07/26 08:12:29;;;;;;;11.63;5.93;;;24.30;99.90;;;;;;5029244;28;20256;-77
2022/07/26 08:14:55;;;;;;;6.73;5.03;;;24.40;99.90;;;;;;5029660;28;20680;-76
2022/07/26 08:17:21;;;;;;;13.43;5.90;;;24.30;99.90;;;;;;5030981;28;20213;-76
2022/07/26 08:19:47;;;;;;;7.90;5.90;;;24.30;99.90;;;;;;5032768;28;20165;-76
2022/07/26 08:22:13;;;;;;;11.40;6.73;;;24.30;99.90;;;;;;5039698;28;20579;-77
2022/07/26 08:24:39;;;;;;;8.67;5.40;;;24.20;99.90;;;;;;5034306;28;20170;-76
2022/07/26 08:27:05;;;;;;;8.77;6.80;;;24.20;99.90;;;;;;5033150;28;20209;-76
2022/07/26 08:29:31;;;;;;;10.00;6.57;;;24.10;99.90;;;;;;5033385;28;20588;-78
2022/07/26 08:31:57;;;;;;;9.60;5.67;;;24.10;99.90;;;;;;5034010;28;20572;-77
2022/07/26 08:34:23;;;;;;;9.90;6.63;;;24.20;99.90;;;;;;5032856;28;20584;-77
2022/07/26 08:36:49;;;;;;;10.87;6.80;;;24.30;99.90;;;;;;5034162;28;20208;-77
2022/07/26 08:39:15;;;;;;;8.17;6.80;;;24.30;99.90;;;;;;5034326;28;20576;-77
2022/07/26 08:41:42;;;;;;;7.90;7.03;;;24.40;99.90;;;;;;5016389;28;20208;-77
2022/07/26 08:44:10;;;;;;;12.80;7.60;;;24.60;99.90;;;;;;5032589;28;20584;-77
2022/07/26 08:46:41;;;;;;;10.13;6.87;;;24.90;99.90;;;;;;5032801;28;21147;-77
2022/07/26 08:49:09;;;;;;;6.93;6.33;;;25.00;99.90;;;;;;5034034;28;20610;-76
2022/07/26 08:51:39;;;;;;;8.80;6.93;;;25.20;99.90;;;;;;5034017;28;20662;-76
2022/07/26 08:54:05;;;;;;;7.90;7.10;;;25.30;99.90;;;;;;5032715;28;20951;-76
2022/07/26 08:56:36;;;;;;;10.23;7.07;;;25.30;99.90;;;;;;5033910;28;20654;-77
2022/07/26 08:59:04;;;;;;;6.93;6.23;;;25.30;99.90;;;;;;5034167;28;20568;-77
2022/07/26 09:01:29;;;;;;;10.70;6.70;;;25.30;99.90;;;;;;5033267;28;20576;-76
2022/07/26 09:03:55;;;;;;;9.30;6.47;;;25.50;99.90;;;;;;5033812;28;20560;-76
2022/07/26 09:06:22;;;;;;;13.13;7.07;;;25.60;99.90;;;;;;5033661;28;20180;-76
2022/07/26 09:08:50;;;;;;;7.50;5.50;;;25.80;99.90;;;;;;5027918;28;20173;-76
2022/07/26 09:11:32;;;;;;;10.37;5.90;;;26.10;99.90;;;;;;5033652;28;20577;-77
2022/07/26 09:14:01;;;;;;;9.33;5.67;;;26.60;99.90;;;;;;5032510;28;21116;-77
2022/07/26 09:16:28;;;;;;;7.93;5.40;;;27.10;99.90;;;;;;5033549;28;20978;-75
2022/07/26 09:18:54;;;;;;;7.43;5.63;;;27.60;99.90;;;;;;5033583;28;20668;-76
2022/07/26 09:21:37;;;;;;;8.20;5.80;;;28.30;99.90;;;;;;5033285;28;20565;-75
2022/07/26 09:24:04;;;;;;;5.97;4.50;;;29.30;99.90;;;;;;5033374;28;20568;-75
2022/07/26 09:26:29;;;;;;;5.97;4.50;;;30.50;99.90;;;;;;5032240;28;20675;-75
2022/07/26 09:29:11;;;;;;;6.77;4.87;;;31.50;99.00;;;;;;5033562;28;20661;-75
2022/07/26 09:31:38;;;;;;;5.23;4.10;;;32.10;96.20;;;;;;5032131;28;20185;-75
2022/07/26 09:34:05;;;;;;;4.70;4.20;;;32.30;94.50;;;;;;5031913;28;20572;-76
2022/07/26 09:36:31;;;;;;;5.10;3.40;;;32.30;92.40;;;;;;5032684;28;20623;-77
2022/07/26 09:39:01;;;;;;;9.40;3.80;;;32.10;90.90;;;;;;5032048;28;20577;-77
2022/07/26 09:41:32;;;;;;;5.60;4.00;;;31.80;89.00;;;;;;5033137;28;20680;-76
2022/07/26 09:44:19;;;;;;;7.53;4.80;;;31.40;87.90;;;;;;5031890;28;20580;-76
2022/07/26 09:46:56;;;;;;;4.97;4.13;;;31.00;87.20;;;;;;5032530;28;21250;-76
2022/07/26 09:49:26;;;;;;;7.80;4.17;;;30.60;86.40;;;;;;5032935;28;20628;-75
2022/07/26 09:51:53;;;;;;;6.77;4.20;;;30.30;87.50;;;;;;5032780;28;20588;-76
2022/07/26 09:54:27;;;;;;;6.70;4.50;;;30.20;88.80;;;;;;5032788;28;20986;-77
2022/07/26 09:56:54;;;;;;;5.07;4.57;;;30.20;88.70;;;;;;5031447;28;20643;-76
2022/07/26 09:59:22;;;;;;;4.80;4.30;;;30.10;89.50;;;;;;5028189;28;20592;-75
2022/07/26 10:01:49;;;;;;;6.87;3.53;;;30.40;90.60;;;;;;5029937;28;20578;-75
2022/07/26 10:04:15;;;;;;;4.90;4.00;;;31.00;91.20;;;;;;5027478;28;20592;-75
2022/07/26 10:06:42;;;;;;;5.25;3.60;;;31.80;90.80;;;;;;5025987;28;20715;-77
2022/07/26 10:09:09;;;;;;;3.23;2.73;;;32.60;84.50;;;;;;5024594;28;20540;-77
2022/07/26 10:11:48;;;;;;;4.10;3.13;;;33.10;83.90;;;;;;5031142;28;20693;-74
2022/07/26 10:14:38;;;;;;;4.90;2.97;;;33.20;79.50;;;;;;5022375;28;20978;-77
2022/07/26 10:17:29;;;;;;;5.60;2.90;;;33.20;77.80;;;;;;5018873;28;20668;-77
2022/07/26 10:20:11;;;;;;;4.47;2.80;;;33.30;77.80;;;;;;5031514;28;21166;-77
2022/07/26 10:22:46;;;;;;;3.70;2.13;;;33.70;77.50;;;;;;5030127;28;20579;-76
2022/07/26 10:25:18;;;;;;;6.47;3.73;;;34.00;74.90;;;;;;5030328;28;20580;-76
2022/07/26 10:27:46;;;;;;;3.00;2.67;;;33.90;72.30;;;;;;5031186;28;20652;-76
2022/07/26 10:30:18;;;;;;;4.70;2.57;;;33.90;72.50;;;;;;5030465;28;21135;-76
2022/07/26 10:33:01;;;;;;;5.10;2.50;;;34.30;73.20;;;;;;5032067;28;20603;-76
2022/07/26 10:35:40;;;;;;;3.23;2.10;;;34.80;70.90;;;;;;5010489;28;20593;-75
2022/07/26 10:38:09;;;;;;;4.40;2.80;;;35.30;70.40;;;;;;5025602;28;20616;-76
2022/07/26 10:40:53;;;;;;;3.80;1.70;;;35.80;67.90;;;;;;5031753;28;20560;-76
2022/07/26 10:43:19;;;;;;;2.40;1.20;;;36.30;60.80;;;;;;5031361;28;20568;-76
2022/07/26 10:45:45;;;;;;;3.80;1.17;;;36.70;62.50;;;;;;5013760;28;20595;-75
2022/07/26 10:48:17;;;;;;;3.63;1.73;;;37.10;61.10;;;;;;5033227;28;20196;-75
2022/07/26 10:50:49;;;;;;;2.57;1.70;;;37.50;59.60;;;;;;5029254;28;20173;-76
2022/07/26 10:53:23;;;;;;;3.63;1.33;;;37.80;59.00;;;;;;5023686;28;20923;-75
2022/07/26 10:55:57;;;;;;;5.10;1.47;;;38.00;57.30;;;;;;5028797;28;21175;-76
2022/07/26 10:58:25;;;;;;;2.50;1.30;;;38.10;55.20;;;;;;5028988;28;21030;-77
2022/07/26 11:01:09;;;;;;;3.57;1.40;;;38.10;55.00;;;;;;5022728;28;20600;-76
2022/07/26 11:03:39;;;;;;;4.80;1.60;;;38.10;53.00;;;;;;5031181;28;20600;-77
2022/07/26 11:06:17;;;;;;;3.83;1.30;;;38.20;53.50;;;;;;5031129;28;20580;-76
2022/07/26 11:08:45;;;;;;;3.30;1.40;;;38.20;52.90;;;;;;5031344;28;20978;-77
2022/07/26 11:11:12;;;;;;;3.90;1.57;;;38.10;51.50;;;;;;5029873;28;20624;-77
2022/07/26 11:13:39;;;;;;;7.93;1.50;;;37.80;51.10;;;;;;5031423;28;20575;-78
2022/07/26 11:16:08;;;;;;;4.20;2.27;;;37.30;49.40;;;;;;5031214;28;20669;-76
2022/07/26 11:18:36;;;;;;;2.30;1.33;;;36.60;48.80;;;;;;5029541;28;21078;-77
2022/07/26 11:21:28;;;;;;;3.73;1.60;;;35.90;48.60;;;;;;5029412;28;20605;-82
2022/07/26 11:24:01;;;;;;;3.00;1.57;;;35.10;49.40;;;;;;5026550;28;20582;-82
2022/07/26 11:26:27;;;;;;;4.53;1.80;;;34.40;49.40;;;;;;5036486;28;21019;-80
2022/07/26 11:28:54;;;;;;;3.20;1.87;;;33.60;50.00;;;;;;5029377;28;20681;-79
2022/07/26 11:31:43;;;;;;;3.27;1.60;;;33.10;50.70;;;;;;5029848;28;20651;-78
2022/07/26 11:34:17;;;;;;;5.57;1.97;;;32.70;51.30;;;;;;5028294;28;20580;-76
2022/07/26 11:36:45;;;;;;;3.80;1.70;;;32.20;52.30;;;;;;5030475;28;20976;-76
2022/07/26 11:39:13;;;;;;;3.90;1.47;;;31.70;51.60;;;;;;5031362;28;20979;-77
2022/07/26 11:41:40;;;;;;;4.13;1.73;;;31.20;51.70;;;;;;5031194;28;20961;-77
2022/07/26 11:44:20;;;;;;;2.97;1.20;;;30.80;52.50;;;;;;5030791;28;20564;-77
2022/07/26 11:46:46;;;;;;;5.70;1.37;;;30.30;52.20;;;;;;5031219;28;20703;-76
2022/07/26 11:49:20;;;;;;;3.93;1.40;;;29.80;52.40;;;;;;5013353;28;20564;-77
2022/07/26 11:51:54;;;;;;;2.90;1.00;;;29.30;52.70;;;;;;5031402;28;21142;-77
2022/07/26 11:54:22;;;;;;;3.67;1.50;;;28.80;52.60;;;;;;5031801;28;20680;-77
2022/07/26 11:57:02;;;;;;;3.37;1.13;;;28.30;53.00;;;;;;5035143;28;20686;-76
2022/07/26 11:59:31;;;;;;;5.13;1.10;;;28.00;54.00;;;;;;5034781;28;20667;-76
2022/07/26 12:01:58;;;;;;;4.80;1.43;;;27.60;54.40;;;;;;5035379;28;20572;-77
2022/07/26 12:04:27;;;;;;;3.60;1.60;;;27.30;54.90;;;;;;5034498;28;20577;-77
2022/07/26 12:06:54;;;;;;;2.57;1.30;;;27.00;55.40;;;;;;5034983;28;20596;-77
2022/07/26 12:09:39;;;;;;;2.40;1.87;;;26.80;55.40;;;;;;5033287;28;20571;-77
2022/07/26 12:12:08;;;;;;;5.47;3.27;;;26.60;56.10;;;;;;5033739;28;20596;-77
2022/07/26 12:14:38;;;;;;;2.97;1.87;;;26.40;56.20;;;;;;5033079;28;20619;-77
2022/07/26 12:17:16;;;;;;;2.80;2.23;;;26.30;56.70;;;;;;5033500;28;20639;-77
2022/07/26 12:19:44;;;;;;;4.40;2.50;;;26.20;57.70;;;;;;5033204;28;20635;-77
2022/07/26 12:22:15;;;;;;;5.63;2.00;;;26.20;57.40;;;;;;5034749;28;20579;-77
2022/07/26 12:24:51;;;;;;;2.77;1.37;;;26.10;57.60;;;;;;5034201;28;20947;-77
2022/07/26 12:27:22;;;;;;;3.47;1.60;;;26.10;58.00;;;;;;5034480;28;20631;-77
2022/07/26 12:29:54;;;;;;;2.70;1.30;;;26.10;58.40;;;;;;5033010;28;20602;-77
2022/07/26 12:32:23;;;;;;;3.70;2.03;;;26.20;58.80;;;;;;5033200;28;20597;-77
2022/07/26 12:35:03;;;;;;;3.10;2.30;;;26.20;59.10;;;;;;5034132;28;20978;-77
2022/07/26 12:37:32;;;;;;;3.00;2.07;;;26.20;59.80;;;;;;5033048;28;20665;-77
2022/07/26 12:40:04;;;;;;;3.10;1.80;;;26.30;60.00;;;;;;5029699;28;20584;-77
2022/07/26 12:42:33;;;;;;;4.50;1.77;;;26.30;60.50;;;;;;5034230;28;20584;-77
2022/07/26 12:44:59;;;;;;;5.03;2.10;;;26.30;60.70;;;;;;5033723;28;20733;-78
2022/07/26 12:47:26;;;;;;;3.37;1.70;;;26.40;61.20;;;;;;5034085;28;20596;-77
2022/07/26 12:49:52;;;;;;;3.60;2.17;;;26.50;62.20;;;;;;5030480;28;20583;-77
2022/07/26 12:52:20;;;;;;;3.97;1.93;;;26.70;63.10;;;;;;5034293;28;20715;-77